Time;durP1;ratioP1;P1;durP2;ratioP2;P2;SDS_P1;SDS_P2;PMS_P1;PMS_P2;Temp;Humidity;BMP_temperature;BMP_pressure;BME280_temperature;BME280_humidity;BME280_pressure;Samples;Min_cycle;Max_cycle;Signal;HPM_P1;HPM_P2
2023/01/24 00:00:05;;;;;;;11.98;5.68;;;;;;;3.05;100.00;99026.47;5027148;28;20416;-83
2023/01/24 00:02:31;;;;;;;12.18;5.75;;;;;;;3.06;100.00;99012.38;5014292;28;20029;-83
2023/01/24 00:04:57;;;;;;;17.52;6.03;;;;;;;3.08;100.00;99018.53;5013865;28;20092;-83
2023/01/24 00:07:22;;;;;;;12.23;6.13;;;;;;;2.94;100.00;99007.22;4997468;28;20040;-82
2023/01/24 00:09:48;;;;;;;12.50;4.85;;;;;;;2.62;100.00;98974.88;4997419;28;20083;-84
2023/01/24 00:12:13;;;;;;;15.07;5.97;;;;;;;2.83;100.00;99018.75;4997145;28;20037;-83
2023/01/24 00:14:39;;;;;;;10.60;5.35;;;;;;;2.90;100.00;99023.09;5013687;28;20037;-82
2023/01/24 00:17:04;;;;;;;13.27;6.45;;;;;;;2.92;100.00;99030.16;4997625;28;20056;-82
2023/01/24 00:19:30;;;;;;;18.58;7.82;;;;;;;2.96;100.00;99029.19;5013980;28;20028;-84
2023/01/24 00:21:55;;;;;;;16.02;5.95;;;;;;;3.04;100.00;99035.31;4993466;28;20067;-84
2023/01/24 00:24:21;;;;;;;15.68;6.35;;;;;;;3.05;100.00;99031.78;5013820;28;20091;-83
2023/01/24 00:26:46;;;;;;;16.25;6.22;;;;;;;3.09;100.00;99037.91;4994752;28;20632;-83
2023/01/24 00:29:12;;;;;;;15.65;5.82;;;;;;;3.06;100.00;99043.22;4997689;28;20655;-83
2023/01/24 00:31:38;;;;;;;16.88;5.97;;;;;;;3.06;100.00;99035.31;4993862;28;20124;-83
2023/01/24 00:34:03;;;;;;;16.05;5.60;;;;;;;2.91;100.00;99028.38;4997015;28;20029;-83
2023/01/24 00:36:29;;;;;;;16.00;5.20;;;;;;;2.88;100.00;99016.94;4994362;28;20119;-83
2023/01/24 00:38:54;;;;;;;14.38;6.10;;;;;;;2.83;100.00;99030.19;5013693;28;20053;-83
2023/01/24 00:41:20;;;;;;;16.42;6.18;;;;;;;2.80;100.00;99029.34;4997233;28;20034;-83
2023/01/24 00:43:46;;;;;;;12.25;5.38;;;;;;;2.72;100.00;99034.69;5013771;28;20041;-84
2023/01/24 00:46:14;;;;;;;16.85;6.55;;;;;;;2.54;100.00;99011.91;4997375;28;20096;-83
2023/01/24 00:48:40;;;;;;;14.40;5.45;;;;;;;2.61;100.00;99036.53;4997564;28;20050;-83
2023/01/24 00:51:05;;;;;;;14.82;5.97;;;;;;;2.66;100.00;99040.88;5000506;28;20110;-83
2023/01/24 00:53:31;;;;;;;12.40;5.57;;;;;;;2.57;100.00;99017.19;5017895;28;20041;-83
2023/01/24 00:55:58;;;;;;;12.75;5.25;;;;;;;2.77;100.00;99040.78;5017419;28;20022;-83
2023/01/24 00:58:24;;;;;;;14.00;5.72;;;;;;;2.83;100.00;99046.03;4999433;28;20022;-82
2023/01/24 01:00:50;;;;;;;13.15;5.05;;;;;;;2.74;100.00;99052.25;5000814;28;20135;-82
2023/01/24 01:03:17;;;;;;;21.75;5.53;;;;;;;2.80;100.00;99055.78;5001206;28;20033;-84
2023/01/24 01:05:43;;;;;;;13.38;5.60;;;;;;;2.67;100.00;99050.56;5000890;28;20017;-83
2023/01/24 01:08:10;;;;;;;12.75;5.65;;;;;;;2.70;100.00;99047.91;5016994;28;20408;-83
2023/01/24 01:10:36;;;;;;;11.82;5.28;;;;;;;2.89;100.00;99055.72;5000526;28;20493;-84
2023/01/24 01:13:02;;;;;;;11.65;4.97;;;;;;;2.77;100.00;99045.22;4998815;28;20040;-82
2023/01/24 01:15:29;;;;;;;9.80;5.22;;;;;;;2.85;100.00;99057.50;5000083;28;20473;-83
2023/01/24 01:17:54;;;;;;;16.98;5.65;;;;;;;2.69;100.00;99051.44;4999504;28;20034;-83
2023/01/24 01:20:20;;;;;;;15.52;6.18;;;;;;;2.69;100.00;99046.16;5014232;28;20037;-83
2023/01/24 01:22:46;;;;;;;12.93;5.25;;;;;;;2.66;100.00;99043.53;4998665;28;20063;-84
2023/01/24 01:25:11;;;;;;;12.05;5.07;;;;;;;2.69;100.00;99046.16;5017179;28;20052;-84
2023/01/24 01:27:37;;;;;;;10.82;4.18;;;;;;;2.67;100.00;99049.69;5000258;28;20021;-84
2023/01/24 01:31:04;;;;;;;14.98;5.07;;;;;;;2.64;100.00;99031.22;4999198;28;20029;-83
2023/01/24 01:33:30;;;;;;;12.90;4.80;;;;;;;2.73;100.00;99039.09;4992724;28;20050;-84
2023/01/24 01:35:55;;;;;;;14.05;5.53;;;;;;;2.83;100.00;99056.59;5017136;28;20025;-83
2023/01/24 01:38:24;;;;;;;12.90;5.38;;;;;;;2.81;100.00;99065.44;4998813;28;20029;-83
2023/01/24 01:40:49;;;;;;;12.52;5.50;;;;;;;2.87;100.00;99057.47;5001309;28;20176;-82
2023/01/24 01:43:19;;;;;;;14.40;5.65;;;;;;;2.92;100.00;99053.03;5016184;28;20115;-82
2023/01/24 01:45:46;;;;;;;9.73;5.13;;;;;;;2.82;100.00;99062.78;4994223;28;20037;-83
2023/01/24 01:48:13;;;;;;;12.43;5.43;;;;;;;2.78;100.00;99055.75;5017014;28;20025;-83
2023/01/24 01:50:42;;;;;;;13.27;5.22;;;;;;;2.76;100.00;99046.09;5000715;28;20112;-83
2023/01/24 01:53:08;;;;;;;11.93;3.92;;;;;;;2.78;100.00;99049.59;4996417;28;20204;-83
2023/01/24 01:55:36;;;;;;;13.43;5.13;;;;;;;2.83;100.00;99055.75;4999652;28;20049;-83
2023/01/24 01:58:02;;;;;;;13.82;5.85;;;;;;;2.86;100.00;99051.28;5016525;28;20040;-83
2023/01/24 02:00:28;;;;;;;11.90;4.88;;;;;;;2.89;100.00;99055.72;5017004;28;20041;-83
2023/01/24 02:03:37;;;;;;;11.55;5.30;;;;;;;2.93;100.00;99058.28;5018136;28;20029;-82
2023/01/24 02:05:46;;;;;;;13.30;6.00;;;;;;;2.80;100.00;99047.84;5019812;28;20132;-82
2023/01/24 02:08:13;;;;;;;9.82;4.22;;;;;;;2.84;100.00;99046.91;5019034;28;20030;-84
2023/01/24 02:13:46;;;;;;;13.38;4.75;;;;;;;2.74;100.00;99046.97;5036710;28;20040;-83
2023/01/24 02:16:13;;;;;;;11.52;5.22;;;;;;;2.67;100.00;99029.44;4981185;28;20038;-83
2023/01/24 02:18:41;;;;;;;13.85;4.40;;;;;;;2.77;100.00;99045.22;5002877;28;20120;-83
2023/01/24 02:21:09;;;;;;;10.25;4.22;;;;;;;2.79;100.00;99032.88;5016608;28;20513;-84
2023/01/24 02:23:57;;;;;;;10.05;4.80;;;;;;;2.85;100.00;99043.41;5016314;28;20032;-83
2023/01/24 02:26:24;;;;;;;14.75;6.43;;;;;;;2.63;100.00;99032.97;5011899;28;20475;-84
2023/01/24 02:29:11;;;;;;;15.65;6.20;;;;;;;2.54;100.00;99026.88;5008305;28;20036;-84
2023/01/24 02:31:51;;;;;;;16.92;6.15;;;;;;;2.62;100.00;99039.13;4999721;28;20390;-83
2023/01/24 02:34:17;;;;;;;13.98;5.03;;;;;;;2.44;100.00;99026.06;5034263;28;20033;-84
2023/01/24 02:36:43;;;;;;;11.25;5.70;;;;;;;2.39;100.00;99021.69;4998953;28;20036;-82
2023/01/24 02:39:12;;;;;;;11.90;5.50;;;;;;;2.57;100.00;99035.66;4998616;28;20116;-83
2023/01/24 02:41:48;;;;;;;11.63;5.03;;;;;;;2.63;100.00;99056.75;4998714;28;20067;-83
2023/01/24 02:44:23;;;;;;;14.13;5.07;;;;;;;2.60;100.00;99056.78;4998259;28;20485;-82
2023/01/24 02:46:48;;;;;;;10.68;5.03;;;;;;;2.57;100.00;99043.59;4996102;28;20033;-83
2023/01/24 02:49:14;;;;;;;8.77;4.57;;;;;;;2.60;100.00;99042.69;4999144;28;20442;-82
2023/01/24 02:54:23;;;;;;;8.77;4.22;;;;;;;2.57;100.00;99040.94;5006257;28;20039;-81
2023/01/24 02:59:33;;;;;;;8.63;4.25;;;;;;;2.56;100.00;99025.09;5012947;28;20035;-82
2023/01/24 03:01:58;;;;;;;8.15;3.75;;;;;;;2.65;100.00;99041.75;4988055;28;20404;-83
2023/01/24 03:04:24;;;;;;;13.15;4.45;;;;;;;2.48;100.00;99026.91;4995134;28;20556;-82
2023/01/24 03:06:50;;;;;;;7.00;3.50;;;;;;;2.35;100.00;99026.09;4976100;28;20034;-82
2023/01/24 03:09:19;;;;;;;9.93;4.40;;;;;;;2.25;100.00;99018.22;4999891;28;20033;-83
2023/01/24 03:11:49;;;;;;;9.77;4.38;;;;;;;2.26;100.00;99031.44;4979585;28;20022;-82
2023/01/24 03:36:07;;;;;;;8.63;3.90;;;;;;;2.40;100.00;99042.78;4996023;28;20406;-83
2023/01/24 03:41:17;;;;;;;7.13;3.78;;;;;;;2.34;100.00;99039.34;5017842;28;20514;-80
2023/01/24 03:43:43;;;;;;;8.85;4.00;;;;;;;2.39;100.00;99045.47;4998600;28;20104;-81
2023/01/24 03:46:09;;;;;;;8.60;4.18;;;;;;;2.37;100.00;99042.81;4998239;28;20040;-81
2023/01/24 03:48:36;;;;;;;14.05;5.22;;;;;;;2.42;100.00;99043.69;5014382;28;20029;-81
2023/01/24 03:53:46;;;;;;;12.93;4.30;;;;;;;2.43;100.00;99042.78;5037295;28;20485;-81
2023/01/24 03:56:12;;;;;;;14.60;4.53;;;;;;;2.54;100.00;99043.59;5023410;28;20025;-81
2023/01/24 03:58:37;;;;;;;11.20;4.55;;;;;;;2.25;100.00;99034.97;4998254;28;20037;-81
2023/01/24 04:01:03;;;;;;;8.23;4.10;;;;;;;2.28;100.00;99032.31;5014288;28;20052;-81
2023/01/24 04:03:29;;;;;;;11.23;4.95;;;;;;;2.08;100.00;99023.63;5014492;28;20029;-80
2023/01/24 04:05:54;;;;;;;9.77;4.03;;;;;;;2.06;100.00;99028.03;5014288;28;20022;-81
2023/01/24 04:08:20;;;;;;;12.15;4.07;;;;;;;2.13;100.00;99040.28;5011894;28;20389;-80
2023/01/24 04:10:45;;;;;;;8.55;3.65;;;;;;;2.21;100.00;99050.84;4997939;28;20060;-81
2023/01/24 04:13:12;;;;;;;8.90;3.30;;;;;;;2.25;100.00;99056.06;5014709;28;20025;-81
2023/01/24 04:15:38;;;;;;;6.15;3.38;;;;;;;2.19;100.00;99054.34;4997812;28;20033;-82
2023/01/24 04:18:05;;;;;;;5.38;3.10;;;;;;;2.17;100.00;99063.16;4998095;28;20112;-80
2023/01/24 04:20:33;;;;;;;10.60;4.22;;;;;;;2.19;100.00;99056.09;5014394;28;20432;-80
2023/01/24 04:23:06;;;;;;;6.22;3.33;;;;;;;2.17;100.00;99050.84;4997743;28;20033;-80
2023/01/24 04:25:32;;;;;;;10.07;3.90;;;;;;;2.21;100.00;99054.34;5016032;28;20029;-81
2023/01/24 04:27:59;;;;;;;7.03;3.63;;;;;;;2.22;100.00;99053.44;5002014;28;20033;-81
2023/01/24 04:30:25;;;;;;;5.32;3.55;;;;;;;2.13;100.00;99048.22;4997089;28;20504;-81
2023/01/24 04:32:51;;;;;;;8.23;3.70;;;;;;;2.15;100.00;99049.09;5018197;28;20037;-81
2023/01/24 04:35:22;;;;;;;12.00;3.85;;;;;;;2.24;100.00;99053.47;5017993;28;20477;-80
2023/01/24 04:37:47;;;;;;;8.70;4.63;;;;;;;2.29;100.00;99054.31;5018168;28;20091;-81
2023/01/24 04:40:14;;;;;;;7.68;4.45;;;;;;;2.27;100.00;99053.44;5001494;28;20033;-80
2023/01/24 04:42:40;;;;;;;12.32;5.15;;;;;;;2.31;100.00;99050.75;5018435;28;20037;-81
2023/01/24 04:45:07;;;;;;;8.38;4.47;;;;;;;2.18;100.00;99052.56;5017651;28;20029;-81
2023/01/24 04:47:32;;;;;;;6.63;3.63;;;;;;;2.06;100.00;99049.16;5017776;28;20080;-80
2023/01/24 04:49:58;;;;;;;7.35;3.88;;;;;;;2.07;100.00;99056.16;5001331;28;20076;-80
2023/01/24 04:52:23;;;;;;;9.30;3.33;;;;;;;2.13;100.00;99058.78;4997641;28;20112;-80
2023/01/24 04:54:50;;;;;;;7.82;3.85;;;;;;;2.20;100.00;99055.22;5000285;28;20033;-82
2023/01/24 04:57:15;;;;;;;5.85;3.60;;;;;;;2.25;100.00;99060.47;4996990;28;20040;-82
2023/01/24 04:59:41;;;;;;;7.13;3.15;;;;;;;2.09;100.00;99057.91;4978910;28;20034;-83
2023/01/24 05:02:07;;;;;;;10.48;4.57;;;;;;;2.01;100.00;99035.97;5004597;28;20116;-82
2023/01/24 05:04:32;;;;;;;10.65;5.07;;;;;;;2.08;100.00;99053.53;4993888;28;20075;-83
2023/01/24 05:06:58;;;;;;;8.93;4.35;;;;;;;1.90;100.00;99050.09;5002240;28;20034;-82
2023/01/24 05:09:23;;;;;;;9.27;4.95;;;;;;;1.99;100.00;99060.59;4996989;28;20029;-84
2023/01/24 05:11:49;;;;;;;8.43;4.80;;;;;;;2.10;100.00;99083.41;4992011;28;20621;-81
2023/01/24 05:14:14;;;;;;;10.85;5.32;;;;;;;2.11;100.00;99079.03;4980648;28;20064;-83
2023/01/24 05:16:40;;;;;;;15.43;6.43;;;;;;;2.00;100.00;99067.66;4995136;28;20532;-82
2023/01/24 05:19:06;;;;;;;12.55;6.75;;;;;;;2.09;100.00;99064.97;5010846;28;20116;-82
2023/01/24 05:21:32;;;;;;;15.00;6.95;;;;;;;2.19;100.00;99087.78;5013995;28;20070;-82
2023/01/24 05:23:58;;;;;;;12.00;5.32;;;;;;;2.10;100.00;99071.97;5006074;28;20028;-82
2023/01/24 05:26:25;;;;;;;9.73;5.43;;;;;;;1.99;100.00;99074.69;5012477;28;20104;-82
2023/01/24 05:28:52;;;;;;;9.43;5.80;;;;;;;2.03;100.00;99067.63;4998864;28;20091;-83
2023/01/24 05:31:18;;;;;;;18.33;9.38;;;;;;;1.93;100.00;99066.78;5004861;28;20026;-84
2023/01/24 05:33:44;;;;;;;20.58;8.13;;;;;;;2.01;100.00;99083.44;5012693;28;20141;-84
2023/01/24 05:36:15;;;;;;;15.07;7.38;;;;;;;2.04;100.00;99077.28;4983044;28;20109;-83
2023/01/24 05:38:41;;;;;;;15.48;7.47;;;;;;;2.03;100.00;99076.41;4996971;28;20065;-82
2023/01/24 05:41:09;;;;;;;20.38;8.50;;;;;;;2.03;100.00;99075.53;4998852;28;20034;-82
2023/01/24 05:43:35;;;;;;;15.52;7.50;;;;;;;1.87;100.00;99074.72;4984760;28;20112;-83
2023/01/24 05:46:03;;;;;;;18.38;9.07;;;;;;;1.88;100.00;99080.84;4999015;28;20040;-82
2023/01/24 05:48:28;;;;;;;28.02;16.25;;;;;;;1.99;100.00;99087.88;5013171;28;20029;-83
2023/01/24 05:51:05;;;;;;;15.70;7.70;;;;;;;1.91;100.00;99099.31;5022665;28;20055;-81
2023/01/24 05:53:32;;;;;;;18.60;8.25;;;;;;;1.79;100.00;99088.78;5009706;28;20391;-82
2023/01/24 05:56:00;;;;;;;18.45;8.75;;;;;;;1.80;100.00;99096.72;5015562;28;20471;-83
2023/01/24 05:58:30;;;;;;;19.27;8.30;;;;;;;1.80;100.00;99114.28;5008573;28;20033;-81
2023/01/24 06:00:55;;;;;;;25.60;10.50;;;;;;;1.78;100.00;99094.97;4998807;28;20091;-81
2023/01/24 06:03:22;;;;;;;25.63;11.20;;;;;;;1.92;100.00;99116.91;4998055;28;20031;-83
2023/01/24 06:05:53;;;;;;;23.48;11.60;;;;;;;1.92;100.00;99123.06;5004526;28;20029;-81
2023/01/24 06:08:19;;;;;;;11.43;5.60;;;;;;;2.04;100.00;99130.06;4995841;28;20029;-81
2023/01/24 06:10:45;;;;;;;26.50;12.00;;;;;;;1.93;100.00;99127.47;4991299;28;20493;-83
2023/01/24 06:13:11;;;;;;;14.88;7.57;;;;;;;1.92;100.00;99130.09;4994392;28;20025;-81
2023/01/24 06:15:37;;;;;;;20.38;10.00;;;;;;;1.89;100.00;99138.88;4996705;28;20025;-81
2023/01/24 06:18:03;;;;;;;15.13;8.43;;;;;;;2.03;100.00;99147.66;4993668;28;20183;-82
2023/01/24 06:20:29;;;;;;;18.33;7.35;;;;;;;2.05;100.00;99137.97;5013313;28;20100;-82
2023/01/24 06:23:03;;;;;;;66.88;31.02;;;;;;;2.10;100.00;99149.41;5010899;28;20028;-82
2023/01/24 06:25:28;;;;;;;17.38;8.70;;;;;;;1.98;100.00;99146.78;4996356;28;20029;-81
2023/01/24 06:27:54;;;;;;;29.63;14.27;;;;;;;1.89;100.00;99153.84;4998057;28;20473;-82
2023/01/24 06:30:20;;;;;;;18.33;8.55;;;;;;;1.92;100.00;99152.06;4994314;28;20030;-82
2023/01/24 06:33:15;;;;;;;31.55;15.00;;;;;;;2.07;100.00;99164.34;5010986;28;20025;-82
2023/01/24 06:36:22;;;;;;;12.52;7.47;;;;;;;2.11;100.00;99168.75;4992992;28;20095;-82
2023/01/24 06:38:47;;;;;;;13.73;7.35;;;;;;;2.17;100.00;99168.72;4985899;28;20456;-83
2023/01/24 06:41:16;;;;;;;14.23;7.70;;;;;;;2.21;100.00;99181.06;4994942;28;20047;-82
2023/01/24 06:43:43;;;;;;;13.80;6.10;;;;;;;2.06;100.00;99179.31;4976808;28;20550;-85
2023/01/24 06:46:10;;;;;;;13.23;5.82;;;;;;;2.07;100.00;99177.53;4998319;28;20065;-83
2023/01/24 06:48:35;;;;;;;12.93;5.95;;;;;;;1.97;100.00;99168.75;4996371;28;20086;-83
2023/01/24 06:51:01;;;;;;;13.88;5.97;;;;;;;2.03;100.00;99175.81;5011676;28;20108;-81
2023/01/24 06:53:27;;;;;;;11.50;5.55;;;;;;;2.12;100.00;99178.44;5015503;28;20049;-76
2023/01/24 06:55:52;;;;;;;13.18;5.55;;;;;;;2.01;100.00;99161.72;5026624;28;20112;-83
2023/01/24 06:58:18;;;;;;;10.65;4.95;;;;;;;2.01;100.00;99170.53;4992043;28;20096;-83
2023/01/24 07:00:43;;;;;;;7.50;4.38;;;;;;;1.97;100.00;99171.41;4995006;28;20030;-82
2023/01/24 07:03:09;;;;;;;19.15;4.50;;;;;;;1.98;100.00;99164.38;5004497;28;20489;-82
2023/01/24 07:05:35;;;;;;;10.80;5.82;;;;;;;2.06;100.00;99175.81;4994347;28;20022;-82
2023/01/24 07:08:02;;;;;;;13.98;7.03;;;;;;;1.89;100.00;99162.63;4995373;28;20489;-76
2023/01/24 07:10:28;;;;;;;13.82;7.40;;;;;;;1.81;100.00;99166.16;4994089;28;20061;-84
2023/01/24 07:12:54;;;;;;;14.43;7.45;;;;;;;1.98;100.00;99182.84;4996433;28;20113;-84
2023/01/24 07:15:20;;;;;;;14.43;7.43;;;;;;;2.07;100.00;99182.81;4994859;28;20033;-78
2023/01/24 07:17:47;;;;;;;16.75;10.57;;;;;;;2.05;100.00;99187.25;4980583;28;20025;-84
2023/01/24 07:20:13;;;;;;;19.20;10.20;;;;;;;1.99;100.00;99200.44;4988088;28;20099;-84
2023/01/24 07:22:40;;;;;;;18.02;7.70;;;;;;;1.96;100.00;99196.06;5011685;28;20037;-86
2023/01/24 07:25:17;;;;;;;14.23;7.82;;;;;;;1.84;100.00;99187.28;4991931;28;20479;-86
2023/01/24 07:27:45;;;;;;;16.80;8.05;;;;;;;1.95;100.00;99203.97;4997501;28;20033;-87
2023/01/24 07:30:12;;;;;;;19.98;11.70;;;;;;;2.07;100.00;99203.94;5011835;28;20033;-84
2023/01/24 07:32:38;;;;;;;22.58;10.57;;;;;;;2.08;100.00;99210.97;5004973;28;20039;-84
2023/01/24 07:35:05;;;;;;;33.78;14.35;;;;;;;2.23;100.00;99215.34;4984095;28;20033;-85
2023/01/24 07:37:31;;;;;;;19.50;7.50;;;;;;;2.13;100.00;99206.56;4991554;28;20036;-84
2023/01/24 07:39:57;;;;;;;16.75;6.95;;;;;;;2.26;100.00;99218.88;5008340;28;20124;-84
2023/01/24 07:42:23;;;;;;;10.07;6.05;;;;;;;2.27;100.00;99207.44;5007833;28;20121;-85
2023/01/24 07:44:48;;;;;;;12.02;6.10;;;;;;;2.02;100.00;99190.78;5010374;28;20029;-85
2023/01/24 07:47:14;;;;;;;10.32;5.25;;;;;;;1.91;100.00;99183.72;5008508;28;20021;-84
2023/01/24 07:49:39;;;;;;;15.60;8.45;;;;;;;1.96;100.00;99184.63;4988550;28;20061;-86
2023/01/24 07:52:05;;;;;;;15.88;7.28;;;;;;;2.06;100.00;99191.66;5010140;28;20497;-86
2023/01/24 07:54:30;;;;;;;10.57;5.40;;;;;;;2.16;100.00;99204.81;4988160;28;20108;-85
2023/01/24 07:56:56;;;;;;;10.15;6.05;;;;;;;2.25;100.00;99208.28;5008358;28;20079;-85
2023/01/24 07:59:22;;;;;;;13.25;6.72;;;;;;;2.33;100.00;99210.06;4993490;28;20033;-84
2023/01/24 08:01:47;;;;;;;12.38;6.65;;;;;;;2.34;100.00;99203.88;5009556;28;20120;-85
2023/01/24 08:04:13;;;;;;;10.60;4.50;;;;;;;1.95;100.00;99186.38;4995793;28;20065;-85
2023/01/24 08:07:16;;;;;;;18.13;7.95;;;;;;;1.85;100.00;99181.09;4996130;28;20033;-85
2023/01/24 08:09:26;;;;;;;20.58;8.82;;;;;;;1.92;100.00;99177.56;5013341;28;20038;-84
2023/01/24 08:11:52;;;;;;;14.48;6.82;;;;;;;2.00;100.00;99186.38;5010108;28;20120;-85
2023/01/24 08:14:17;;;;;;;10.25;5.63;;;;;;;1.75;100.00;99160.91;4993541;28;20464;-84
2023/01/24 08:16:43;;;;;;;10.20;4.82;;;;;;;1.77;100.00;99182.88;4988120;28;20107;-85
2023/01/24 08:19:08;;;;;;;6.78;4.53;;;;;;;1.81;100.00;99184.63;4990470;28;20031;-84
2023/01/24 08:21:34;;;;;;;9.90;4.50;;;;;;;1.88;100.00;99189.00;4993269;28;20041;-83
2023/01/24 08:23:59;;;;;;;10.48;5.45;;;;;;;1.70;100.00;99191.66;4999181;28;20417;-85
2023/01/24 08:26:25;;;;;;;58.72;24.55;;;;;;;1.88;100.00;99196.91;4995479;28;20025;-84
2023/01/24 08:28:50;;;;;;;15.02;7.20;;;;;;;1.94;100.00;99207.50;4989474;28;20115;-84
2023/01/24 08:31:16;;;;;;;21.60;10.05;;;;;;;2.09;100.00;99207.47;4991797;28;20378;-85
2023/01/24 08:36:26;;;;;;;11.15;5.47;;;;;;;2.17;100.00;99197.78;5010398;28;20087;-85
2023/01/24 08:38:51;;;;;;;17.02;8.40;;;;;;;2.39;100.00;99209.16;4998491;28;20033;-85
2023/01/24 08:41:17;;;;;;;14.75;7.82;;;;;;;2.32;100.00;99197.72;5000646;28;20037;-81
2023/01/24 08:43:42;;;;;;;14.07;7.65;;;;;;;2.26;100.00;99181.91;5008944;28;20021;-81
2023/01/24 08:46:08;;;;;;;16.10;5.50;;;;;;;2.11;100.00;99168.75;5014885;28;20032;-82
2023/01/24 08:48:33;;;;;;;9.48;4.97;;;;;;;1.73;100.00;99128.34;5013167;28;20116;-82
2023/01/24 08:51:02;;;;;;;15.63;5.20;;;;;;;1.82;100.00;99160.88;5023020;28;20026;-81
2023/01/24 08:53:28;;;;;;;16.83;7.80;;;;;;;1.84;100.00;99169.69;4998261;28;20142;-80
2023/01/24 08:55:54;;;;;;;41.53;18.40;;;;;;;1.89;100.00;99169.66;5008102;28;20030;-76
2023/01/24 08:58:20;;;;;;;13.10;6.93;;;;;;;1.97;100.00;99175.84;5025535;28;20103;-78
2023/01/24 09:00:46;;;;;;;13.65;7.03;;;;;;;1.91;100.00;99181.09;5010285;28;20541;-78
2023/01/24 09:03:15;;;;;;;10.70;5.55;;;;;;;2.01;100.00;99198.66;5009235;28;20053;-78
2023/01/24 09:05:41;;;;;;;12.73;6.00;;;;;;;1.90;100.00;99184.63;4993576;28;20080;-78
2023/01/24 09:08:06;;;;;;;14.32;6.40;;;;;;;1.90;100.00;99189.91;5026521;28;20052;-78
2023/01/24 09:10:32;;;;;;;16.08;6.65;;;;;;;2.14;100.00;99192.50;5005835;28;20022;-77
2023/01/24 09:12:57;;;;;;;10.07;5.85;;;;;;;2.10;100.00;99193.38;5012967;28;20025;-78
2023/01/24 09:15:23;;;;;;;8.30;4.93;;;;;;;2.11;100.00;99185.47;4994351;28;20041;-77
2023/01/24 09:17:48;;;;;;;7.25;4.13;;;;;;;2.26;100.00;99195.09;5030748;28;20052;-78
2023/01/24 09:20:15;;;;;;;10.63;5.13;;;;;;;2.34;100.00;99182.75;5012860;28;20030;-77
2023/01/24 09:22:40;;;;;;;14.45;5.78;;;;;;;2.41;100.00;99183.63;5012867;28;20204;-79
2023/01/24 09:25:07;;;;;;;15.07;6.00;;;;;;;2.45;100.00;99193.28;5012796;28;20128;-78
2023/01/24 09:27:34;;;;;;;12.20;6.68;;;;;;;2.43;100.00;99185.34;4996598;28;20044;-78
2023/01/24 09:29:59;;;;;;;9.98;5.75;;;;;;;2.16;100.00;99172.25;5012774;28;20045;-77
2023/01/24 09:32:25;;;;;;;13.75;8.15;;;;;;;2.11;100.00;99159.06;5012924;28;20025;-77
2023/01/24 09:34:50;;;;;;;12.98;6.30;;;;;;;1.97;100.00;99170.56;5030286;28;20029;-78
2023/01/24 09:37:17;;;;;;;10.20;5.22;;;;;;;1.92;100.00;99157.34;5029699;28;20037;-77
2023/01/24 09:39:43;;;;;;;13.13;6.68;;;;;;;1.91;100.00;99171.41;5008837;28;20033;-77
2023/01/24 09:42:15;;;;;;;13.35;6.78;;;;;;;1.93;100.00;99167.03;5012582;28;20455;-76
2023/01/24 09:44:56;;;;;;;;;;;;;;;2.01;100.00;99173.16;4997135;28;20086;-77
2023/01/24 09:47:51;;;;;;;12.38;6.88;;;;;;;1.96;100.00;99169.66;5028739;28;20365;-77
2023/01/24 09:50:54;;;;;;;12.63;7.03;;;;;;;2.17;100.00;99168.72;5022733;28;20034;-78
2023/01/24 09:53:34;;;;;;;16.40;7.90;;;;;;;2.21;100.00;99175.78;5009866;28;20054;-77
2023/01/24 09:56:01;;;;;;;14.77;6.93;;;;;;;2.30;100.00;99175.75;5030024;28;20060;-77
2023/01/24 09:58:31;;;;;;;18.02;8.52;;;;;;;2.17;100.00;99163.47;4994123;28;20057;-77
2023/01/24 10:01:01;;;;;;;12.05;6.20;;;;;;;2.18;100.00;99165.22;5030055;28;20029;-77
2023/01/24 10:03:27;;;;;;;11.77;6.55;;;;;;;2.06;100.00;99142.34;5007852;28;20465;-78
2023/01/24 10:06:01;;;;;;;16.75;8.63;;;;;;;2.13;100.00;99137.94;5012067;28;20077;-78
2023/01/24 10:08:45;;;;;;;20.15;10.48;;;;;;;2.30;100.00;99137.91;4995870;28;20025;-78
2023/01/24 10:11:17;;;;;;;15.48;7.53;;;;;;;2.48;100.00;99141.34;5030027;28;20038;-77
2023/01/24 10:13:58;;;;;;;14.13;7.22;;;;;;;2.44;100.00;99118.47;4995836;28;20049;-78
2023/01/24 10:17:00;;;;;;;16.50;7.10;;;;;;;2.58;100.00;99116.66;5009043;28;20023;-78
2023/01/24 10:19:51;;;;;;;18.98;9.35;;;;;;;2.86;100.00;99119.16;5029526;28;20040;-77
2023/01/24 10:22:45;;;;;;;11.27;5.85;;;;;;;2.87;100.00;99100.63;5002978;28;20390;-78
2023/01/24 10:25:16;;;;;;;13.43;7.30;;;;;;;2.78;100.00;99089.22;5029314;28;20025;-78
2023/01/24 10:27:46;;;;;;;9.93;5.35;;;;;;;2.67;100.00;99074.34;5002500;28;20033;-78
2023/01/24 10:30:28;;;;;;;12.48;5.93;;;;;;;2.92;100.00;99075.06;5004465;28;20034;-78
2023/01/24 10:32:59;;;;;;;8.18;5.10;;;;;;;2.67;100.00;99055.84;5006506;28;20485;-77
2023/01/24 10:35:51;;;;;;;6.65;4.28;;;;;;;2.51;100.00;99048.91;5011753;28;20033;-77
2023/01/24 10:38:17;;;;;;;9.20;5.07;;;;;;;2.61;100.00;99055.00;5011607;28;20033;-77
2023/01/24 10:40:50;;;;;;;6.43;4.55;;;;;;;2.60;100.00;99048.84;5011376;28;20033;-77
2023/01/24 10:43:16;;;;;;;6.35;4.32;;;;;;;2.74;100.00;99051.38;5029016;28;20100;-76
2023/01/24 10:46:36;;;;;;;12.10;6.70;;;;;;;2.97;100.00;99040.66;5011264;28;20137;-76
2023/01/24 10:49:02;;;;;;;10.40;6.22;;;;;;;3.37;100.00;99038.53;4929453;29;20039;-76
2023/01/24 10:51:27;;;;;;;8.23;4.15;;;;;;;3.19;100.00;99010.53;5001089;28;20042;-77
2023/01/24 10:54:00;;;;;;;11.02;7.00;;;;;;;3.35;100.00;99013.91;5007866;28;20044;-77
2023/01/24 10:56:25;;;;;;;13.45;6.70;;;;;;;3.37;100.00;98998.88;5008936;28;20493;-77
2023/01/24 10:59:02;;;;;;;9.68;5.47;;;;;;;3.17;100.00;98989.38;5007692;28;20040;-78
2023/01/24 11:01:37;;;;;;;9.80;5.45;;;;;;;3.30;100.00;98974.25;4988617;28;20038;-75
2023/01/24 11:04:19;;;;;;;11.30;6.05;;;;;;;3.49;100.00;98986.41;5010753;28;20087;-75
2023/01/24 11:06:46;;;;;;;;;;;;;;;3.35;100.00;98966.31;5010231;28;20393;-77
2023/01/24 11:09:20;;;;;;;9.13;4.63;;;;;;;3.05;100.00;98954.25;5012273;28;19921;-75
2023/01/24 11:11:56;;;;;;;7.25;4.00;;;;;;;2.93;100.00;98957.88;5027765;28;20079;-75
2023/01/24 11:14:23;;;;;;;4.57;3.05;;;;;;;3.00;100.00;98958.69;4994551;28;20030;-76
2023/01/24 11:16:51;;;;;;;8.75;3.50;;;;;;;2.95;100.00;98968.44;5012917;28;20037;-76
2023/01/24 11:19:31;;;;;;;43.72;22.02;;;;;;;3.35;100.00;98976.88;5010559;28;20040;-76
2023/01/24 11:22:21;;;;;;;8.73;5.43;;;;;;;3.64;100.00;98986.22;5013528;28;20087;-76
2023/01/24 11:24:47;;;;;;;9.60;5.18;;;;;;;3.87;100.00;98975.38;5009846;28;20512;-76
2023/01/24 11:27:17;;;;;;;8.02;4.40;;;;;;;3.64;100.00;98933.31;5010324;28;20037;-76
2023/01/24 11:29:44;;;;;;;34.75;15.80;;;;;;;3.51;100.00;98923.78;5030996;28;20036;-76
2023/01/24 11:32:31;;;;;;;37.05;16.98;;;;;;;3.81;100.00;98939.25;5012402;28;20038;-76
2023/01/24 11:35:03;;;;;;;18.98;8.45;;;;;;;4.08;100.00;98929.22;5024489;28;20104;-76
2023/01/24 11:37:44;;;;;;;19.23;9.65;;;;;;;3.70;100.00;98906.78;5011914;28;20026;-76
2023/01/24 11:40:22;;;;;;;13.10;6.30;;;;;;;3.73;100.00;98903.22;5030812;28;20025;-75
2023/01/24 11:43:14;;;;;;;12.63;6.18;;;;;;;3.70;100.00;98905.91;5004416;28;20417;-76
2023/01/24 11:45:55;;;;;;;13.00;6.47;;;;;;;3.73;100.00;98904.09;5007323;28;20037;-77
2023/01/24 11:48:22;;;;;;;11.85;5.97;;;;;;;3.98;100.00;98906.41;5028215;28;20515;-75
2023/01/24 11:51:29;;;;;;;5.30;3.25;;;;;;;3.81;100.00;98890.78;5007068;28;20048;-76
2023/01/24 11:54:07;;;;;;;9.55;4.97;;;;;;;3.56;100.00;98877.00;4985651;28;20053;-75
2023/01/24 11:56:38;;;;;;;8.35;4.32;;;;;;;3.23;100.00;98875.63;5007848;28;20108;-76
2023/01/24 11:59:28;;;;;;;12.80;5.85;;;;;;;3.25;100.00;98880.91;5026018;28;20029;-79
2023/01/24 12:02:23;;;;;;;11.20;5.60;;;;;;;3.52;100.00;98903.50;5030860;28;20454;-77
2023/01/24 12:05:07;;;;;;;11.57;5.53;;;;;;;3.68;100.00;98902.41;5013945;28;20040;-74
2023/01/24 12:07:47;;;;;;;4.60;2.38;;;;;;;3.48;100.00;98883.25;5023635;28;20033;-77
2023/01/24 12:11:07;;;;;;;5.20;3.15;;;;;;;3.24;100.00;98865.94;5008432;28;20078;-77
2023/01/24 12:13:53;;;;;;;8.23;3.88;;;;;;;3.35;100.00;98861.41;4971980;28;20040;-76
2023/01/24 12:16:30;;;;;;;4.65;3.10;;;;;;;3.36;100.00;98886.06;5028945;28;20026;-76